This is the latest recevied weather packets stored in our database for station/object N1YZ. If no packets are shown the sender has not sent any weather packets the latest 10 day(s).
| Time | Temp. | Humidity | Pressure | Rain* | Wind** | Luminosity | Snow |
|---|---|---|---|---|---|---|---|
| 1788587741 | 26.11° C | 85% | 1033.6 hPa | 0 mm | - | 0 W/m² | - |
| 1788587437 | 26.11° C | 85% | 1033.5 hPa | 0 mm | - | 0 W/m² | - |
| 1788587132 | 26.11° C | 85% | 1033.6 hPa | 0 mm | - | 0 W/m² | - |
| 1788586828 | 25.56° C | 85% | 1033.3 hPa | 0 mm | - | 0 W/m² | - |
| 1788586527 | 26.11° C | 85% | 1033.5 hPa | 0 mm | - | 0 W/m² | - |
| 1788585922 | 26.11° C | 85% | 1033.5 hPa | 0 mm | - | 0 W/m² | - |
| 1788584699 | 26.11° C | 86% | 1033.6 hPa | 0 mm | - | 0 W/m² | - |
| 1788564945 | 32.78° C | 59% | 1033.4 hPa | 0 mm | - | 10 W/m² | - |
| 1788564642 | 32.78° C | 59% | 1033.5 hPa | 0 mm | - | 12 W/m² | - |
| 1788561912 | 33.89° C | 57% | 1032.8 hPa | 0 mm | - | 22 W/m² | - |
| 1788561612 | 33.89° C | 56% | 1032.9 hPa | 0 mm | - | 23 W/m² | - |
| 1788561311 | 33.89° C | 56% | 1032.8 hPa | 0 mm | - | 24 W/m² | - |
| 1788561007 | 33.89° C | 56% | 1032.9 hPa | 0 mm | - | 26 W/m² | - |
| 1788560702 | 33.89° C | 58% | 1032.8 hPa | 0 mm | - | 26 W/m² | - |
| 1788560091 | 33.89° C | 58% | 1032.6 hPa | 0 mm | - | 31 W/m² | - |
| 1788559787 | 34.44° C | 57% | 1032.7 hPa | 0 mm | - | 34 W/m² | - |
| 1788557352 | 34.44° C | 57% | 1032.6 hPa | 0 mm | - | 50 W/m² | - |
| 1788557051 | 34.44° C | 55% | 1032.9 hPa | 0 mm | - | 53 W/m² | - |
| 1788555836 | 34.44° C | 59% | 1032.8 hPa | 0 mm | - | 60 W/m² | - |
| 1788554013 | 33.89° C | 57% | 1032.8 hPa | 0 mm | - | 446 W/m² | - |
| 1788553404 | 34.44° C | 58% | 1033.1 hPa | 0 mm | - | 351 W/m² | - |
| 1788552188 | 34.44° C | 55% | 1033.5 hPa | 0 mm | - | 67 W/m² | - |
| 1788549459 | 33.89° C | 58% | 1034.3 hPa | 0 mm | - | 104 W/m² | - |
| 1788547033 | 33.89° C | 61% | 1035 hPa | 0 mm | - | 68 W/m² | - |
| 1788546728 | 34.44° C | 59% | 1035.1 hPa | 0 mm | - | 67 W/m² | - |
* Rain latest hour (hover to see other rain measurements)
** Current wind speed in m/s (hover to see current wind gust speed)